Snow/Ice From: 24-10-2018 05:00 Until: 09:00 warning for: Snow/Ice Level: Yellow info button
suomi:
Liikennesää: Ajokeli muuttuu huonoksi aamulla tienpintojen jäätymisen vuoksi.

svenska:
Trafikvädret: Väglaget blir dåligt på morgonen p.g.a. tillfrysning av vägytor.

english:
Traffic weather warning: Bad road conditions are expected in the morning because of ice-covered roads. 


Thunder radar more information blitzortung!


Löydät sääaseman tiedot myös:

European Weather Network

Finland Weather Exchange

Weather Underground

AWEKAS



Weather Underground säähistoriasivu

Päivittäin yhteenveto Syyskuu 20, 2017 Yksiköt:  Englantilaiset    Metriset   Molemmat
« Edellinen Päivä
Seuraava Päivä »
Päivittäin Viikoittain Kuukausittain Vuosittain Mukautettu
  Korkea: Matala: Keskiarvo:
Lämpötila: TemperatureF °F 42.6 °F 44.8 °F
Kastepiste: DewpointF °F 41.9 °F 43.8 °F
Kosteus: Humidity % 92 % 95 %
Tuulen nopeus: WindSpeedMPH mph 0.0 mph 0 mph
Tuulenpuuska: WindSpeedGustMPH mph - -
Tuuli:- - North
Ilmanpaine: PressureIn in 29.94 in -
Sade: 0.00 in    
Historical Graphs
 
 
Taulukkotiedot Syyskuu 20, 2017
Aika Lämpötila Kastepiste Ilmanpaine Tuuli Tuulen nopeus Tuulenpuuska Kosteus Sademäärä (tunneittain)
TemperatureF °F DewpointF °F PressureIn in Calm     Humidity % HourlyPrecipIn in
00:00 43.3 °F 42.3 °F 29.94 in Calm   2.0 mph 96 % 0.01 in
00:15 43.5 °F 42.6 °F 29.94 in Calm     97 % 0.00 in
00:30 43.7 °F 43.0 °F 29.94 in Calm   1.0 mph 97 % 0.00 in
00:45 43.9 °F 43.0 °F 29.94 in Calm   1.0 mph 97 % 0.00 in
01:00 43.9 °F 43.0 °F 29.95 in Calm     97 % 0.00 in
01:15 43.9 °F 43.0 °F 29.95 in Calm   2.0 mph 97 % 0.00 in
01:30 43.9 °F 43.0 °F 29.95 in Calm     97 % 0.00 in
01:45 43.9 °F 43.0 °F 29.95 in Calm     97 % 0.00 in
02:00 43.9 °F 43.0 °F 29.96 in Calm     97 % 0.00 in
02:15 43.7 °F 43.0 °F 29.96 in Calm     97 % 0.00 in
02:30 43.7 °F 43.0 °F 29.97 in Calm   1.0 mph 97 % 0.00 in
02:45 43.7 °F 43.0 °F 29.97 in Calm     97 % 0.00 in
03:00 43.7 °F 43.0 °F 29.97 in Calm     97 % 0.00 in
03:15 43.5 °F 42.8 °F 29.97 in Calm     97 % 0.00 in
03:30 43.5 °F 42.6 °F 29.97 in Calm     97 % 0.00 in
03:45 43.5 °F 42.6 °F 29.97 in Calm     97 % 0.00 in
04:00 43.5 °F 42.6 °F 29.97 in Calm     97 % 0.00 in
04:15 43.5 °F 42.6 °F 29.98 in Calm     97 % 0.00 in
04:30 43.3 °F 42.6 °F 29.98 in Calm   1.0 mph 97 % 0.00 in
04:45 43.3 °F 42.4 °F 29.98 in Calm     97 % 0.00 in
05:00 43.3 °F 42.4 °F 29.98 in Calm   2.0 mph 97 % 0.00 in
05:15 43.2 °F 42.4 °F 29.99 in Calm     97 % 0.00 in
05:30 43.2 °F 42.3 °F 29.99 in Calm   1.0 mph 97 % 0.00 in
05:45 43.0 °F 42.3 °F 29.99 in Calm   2.0 mph 97 % 0.00 in
06:00 43.0 °F 42.1 °F 29.99 in Calm   3.0 mph 97 % 0.00 in
06:30 43.0 °F 42.1 °F 29.99 in Calm     97 % 0.00 in
06:45 43.0 °F 42.1 °F 30.00 in Calm     97 % 0.00 in
07:00 42.8 °F 42.1 °F 30.00 in Calm   1.0 mph 97 % 0.00 in
07:15 42.8 °F 42.1 °F 30.00 in Calm     97 % 0.00 in
07:30 42.6 °F 41.9 °F 30.01 in Calm     97 % 0.00 in
07:45 42.6 °F 42.3 °F 30.01 in Calm     98 % 0.00 in
08:00 42.8 °F 42.3 °F 30.01 in Calm     98 % 0.00 in
08:15 43.0 °F 42.4 °F 30.02 in Calm     98 % 0.00 in
08:30 43.0 °F 42.4 °F 30.02 in Calm     98 % 0.00 in
08:45 43.0 °F 42.4 °F 30.02 in Calm     98 % 0.00 in
09:00 43.2 °F 42.6 °F 30.03 in Calm     98 % 0.00 in
09:15 43.2 °F 42.3 °F 30.03 in Calm   4.0 mph 97 % 0.00 in
09:30 43.2 °F 42.6 °F 30.03 in Calm     98 % 0.00 in
09:45 43.3 °F 42.8 °F 30.04 in Calm   1.0 mph 98 % 0.00 in
10:00 43.5 °F 43.2 °F 30.04 in Calm     98 % 0.00 in
10:15 43.5 °F 43.2 °F 30.04 in Calm     98 % 0.00 in
10:30 43.9 °F 43.3 °F 30.05 in Calm     98 % 0.00 in
10:45 44.1 °F 43.5 °F 30.05 in Calm   1.0 mph 98 % 0.00 in
11:00 44.2 °F 43.7 °F 30.05 in Calm   1.0 mph 98 % 0.00 in
11:15 44.2 °F 43.7 °F 30.05 in Calm     98 % 0.00 in
11:30 44.8 °F 44.2 °F 30.05 in Calm   2.0 mph 98 % 0.00 in
11:45 45.1 °F 44.6 °F 30.05 in Calm     98 % 0.00 in
12:00 45.1 °F 44.6 °F 30.06 in Calm   1.0 mph 98 % 0.00 in
12:15 45.5 °F 45.0 °F 30.06 in Calm   1.0 mph 98 % 0.00 in
12:30 45.9 °F 45.3 °F 30.06 in Calm     98 % 0.00 in
12:45 46.0 °F 45.5 °F 30.06 in Calm     98 % 0.00 in
13:00 46.0 °F 45.3 °F 30.06 in Calm   1.0 mph 97 % 0.00 in
13:15 46.4 °F 45.7 °F 30.07 in Calm   3.0 mph 97 % 0.00 in
13:30 46.8 °F 45.7 °F 30.07 in Calm   2.0 mph 96 % 0.00 in
13:45 46.8 °F 45.7 °F 30.07 in Calm     96 % 0.00 in
14:00 46.8 °F 45.7 °F 30.08 in Calm     96 % 0.00 in
14:15 46.8 °F 45.7 °F 30.08 in Calm     96 % 0.00 in
14:30 46.8 °F 45.7 °F 30.08 in Calm   1.0 mph 96 % 0.00 in
14:45 46.9 °F 45.5 °F 30.08 in Calm   5.0 mph 95 % 0.00 in
15:00 47.7 °F 46.2 °F 30.08 in Calm   1.0 mph 95 % 0.00 in
15:15 48.0 °F 46.4 °F 30.08 in Calm     94 % 0.00 in
15:30 48.4 °F 46.6 °F 30.08 in Calm     94 % 0.00 in
15:45 48.2 °F 46.6 °F 30.09 in Calm     94 % 0.00 in
16:00 48.2 °F 47.7 °F 30.09 in Calm     98 % 0.00 in
16:15 48.2 °F 46.2 °F 30.09 in Calm   2.0 mph 93 % 0.00 in
16:30 48.0 °F 46.2 °F 30.09 in Calm   5.0 mph 93 % 0.00 in
16:45 48.4 °F 46.2 °F 30.09 in Calm     92 % 0.00 in
17:00 48.4 °F 46.0 °F 30.10 in Calm   2.0 mph 92 % 0.00 in
17:15 48.2 °F 46.0 °F 30.10 in Calm   3.0 mph 92 % 0.00 in
17:30 48.2 °F 46.0 °F 30.10 in Calm     92 % 0.00 in
17:45 48.2 °F 46.2 °F 30.10 in Calm     93 % 0.00 in
18:00 47.8 °F 45.7 °F 30.11 in Calm     92 % 0.00 in
18:15 47.8 °F 45.9 °F 30.11 in Calm     93 % 0.00 in
18:30 47.8 °F 46.2 °F 30.11 in Calm     94 % 0.00 in
18:45 47.8 °F 46.2 °F 30.11 in Calm     94 % 0.00 in
19:00 47.8 °F 46.2 °F 30.11 in Calm     94 % 0.00 in
19:15 47.7 °F 46.0 °F 30.12 in Calm     94 % 0.00 in
19:30 47.7 °F 46.2 °F 30.12 in Calm     95 % 0.00 in
19:45 47.5 °F 46.0 °F 30.12 in Calm     95 % 0.00 in
20:00 47.1 °F 45.7 °F 30.13 in Calm     95 % 0.00 in
20:15 46.9 °F 45.5 °F 30.13 in Calm     95 % 0.00 in
20:30 46.8 °F 45.7 °F 30.14 in Calm     96 % 0.00 in
20:45 46.6 °F 45.5 °F 30.14 in Calm     96 % 0.00 in
21:00 46.4 °F 45.3 °F 30.14 in Calm     96 % 0.00 in
21:15 46.2 °F 45.1 °F 30.14 in Calm     96 % 0.00 in
21:30 46.0 °F 45.0 °F 30.15 in Calm   2.0 mph 96 % 0.00 in
21:45 46.0 °F 45.0 °F 30.15 in Calm   1.0 mph 96 % 0.00 in
22:00 46.0 °F 45.3 °F 30.15 in Calm   2.0 mph 97 % 0.00 in
22:15 46.0 °F 45.3 °F 30.16 in Calm     97 % 0.00 in
22:30 46.0 °F 45.1 °F 30.16 in Calm   3.0 mph 97 % 0.00 in
22:45 45.9 °F 45.1 °F 30.16 in Calm     97 % 0.00 in
23:00 45.9 °F 45.0 °F 30.16 in Calm     97 % 0.00 in
23:15 45.7 °F 45.0 °F 30.17 in Calm   2.0 mph 97 % 0.00 in
23:30 45.7 °F 44.8 °F 30.17 in Calm     97 % 0.00 in
23:45 45.5 °F 44.8 °F 30.17 in Calm     97 % 0.00 in
Esan sääasema
Terveisin Weather Underground - 2.75 mb

Alkuperäinen skripti  Jim McMurry - jmcmurry@mwt.net Sovitettu myös templatelle  Wim van der Kuil - Leuven-Template.eu

Laitteet joita käytämme:

Sääasema
Davis VP2

Sääasemaohjelma
Cumulus

Sääaseman tietokone
Asus EeePC

Palveluntarjoaja
Suncomet

Davis VP2

Cumulus

Asus EeePC

Suncomet